createdAt,value
2018-06-05T00:03:59.095Z,62.14
2018-06-05T00:09:02.073Z,61.74
2018-06-05T00:14:05.109Z,62.64
2018-06-05T00:19:08.086Z,62.74
2018-06-05T00:24:11.214Z,62.82
2018-06-05T00:29:14.230Z,63.12
2018-06-05T00:34:17.201Z,62.71
2018-06-05T00:39:20.182Z,63.13
2018-06-05T00:44:23.186Z,63.09
2018-06-05T00:49:26.186Z,63.17
2018-06-05T00:54:29.169Z,63.75
2018-06-05T00:59:32.530Z,63.63
2018-06-05T01:04:35.509Z,64.34
2018-06-05T01:09:38.505Z,64.87
2018-06-05T01:14:41.486Z,65.07
2018-06-05T01:19:44.477Z,65.77
2018-06-05T01:24:47.448Z,65.28
2018-06-05T01:29:50.433Z,64.44
2018-06-05T01:34:53.404Z,64.49
2018-06-05T01:39:56.384Z,63.76
2018-06-05T01:44:59.405Z,63.96
2018-06-05T01:50:02.385Z,63.18
2018-06-05T01:55:05.377Z,63.26
2018-06-05T02:00:08.367Z,63.59
2018-06-05T02:05:11.330Z,62.53
2018-06-05T02:10:14.293Z,62.91
2018-06-05T02:15:17.288Z,62.58
2018-06-05T02:20:20.261Z,63.18
2018-06-05T02:25:23.257Z,62.71
2018-06-05T02:30:26.267Z,62.66
2018-06-05T02:35:29.288Z,62.30
2018-06-05T02:40:32.298Z,62.15
2018-06-05T02:45:35.282Z,62.04
2018-06-05T02:50:38.265Z,61.65
2018-06-05T02:55:41.297Z,62.27
2018-06-05T03:00:44.325Z,63.06
2018-06-05T03:05:47.445Z,62.63
2018-06-05T03:10:50.773Z,61.93
2018-06-05T03:15:53.741Z,62.16
2018-06-05T03:20:56.873Z,62.36
2018-06-05T03:25:59.875Z,62.36
2018-06-05T03:31:03.009Z,62.91
2018-06-05T03:36:06.052Z,62.98
2018-06-05T03:41:09.073Z,62.38
2018-06-05T03:46:12.106Z,62.81
2018-06-05T03:51:15.068Z,62.79
2018-06-05T03:56:18.079Z,62.81
2018-06-05T04:01:21.061Z,62.39
2018-06-05T04:06:24.110Z,62.65
2018-06-05T04:11:27.101Z,62.62
2018-06-05T04:16:30.117Z,62.11
2018-06-05T04:21:33.106Z,62.21
2018-06-05T04:26:36.097Z,62.56
2018-06-05T04:31:39.100Z,62.38
2018-06-05T04:36:42.097Z,61.92
2018-06-05T04:41:45.086Z,62.53
2018-06-05T04:46:48.120Z,62.05
2018-06-05T04:51:51.101Z,62.25
2018-06-05T04:56:54.097Z,62.54
2018-06-05T05:01:57.092Z,62.47
2018-06-05T05:07:00.077Z,62.94
2018-06-05T05:12:03.077Z,62.56
2018-06-05T05:17:06.111Z,62.67
2018-06-05T05:22:09.109Z,62.56
2018-06-05T05:27:12.108Z,62.76
2018-06-05T05:32:15.142Z,62.46
2018-06-05T05:37:18.200Z,62.23
2018-06-05T05:42:21.200Z,62.90
2018-06-05T05:47:24.190Z,63.56
2018-06-05T05:52:27.239Z,63.82
2018-06-05T05:57:30.227Z,64.11
2018-06-05T06:02:33.242Z,63.45
2018-06-05T06:07:36.252Z,62.71
2018-06-05T06:12:39.266Z,63.00
2018-06-05T06:17:42.273Z,62.30
2018-06-05T06:22:45.262Z,62.07
2018-06-05T06:27:48.298Z,62.37
2018-06-05T06:32:51.269Z,62.06
2018-06-05T06:37:54.259Z,61.29
2018-06-05T06:42:57.237Z,62.07
2018-06-05T06:48:00.285Z,62.16
2018-06-05T06:53:03.309Z,62.43
2018-06-05T06:58:06.308Z,62.48
2018-06-05T07:03:09.277Z,61.79
2018-06-05T07:08:12.266Z,61.49
2018-06-05T07:13:15.245Z,61.99
2018-06-05T07:18:18.324Z,62.02
2018-06-05T07:23:21.278Z,62.56
2018-06-05T07:28:24.261Z,61.87
2018-06-05T07:33:27.269Z,62.07
2018-06-05T07:38:30.246Z,63.84
2018-06-05T07:43:33.261Z,64.31
2018-06-05T07:48:36.257Z,64.47
2018-06-05T07:53:39.242Z,62.92
2018-06-05T07:58:42.223Z,62.41
2018-06-05T08:03:45.200Z,61.40
2018-06-05T08:08:48.186Z,61.16
2018-06-05T08:13:51.145Z,61.42
2018-06-05T08:18:54.123Z,61.57
2018-06-05T08:23:57.088Z,61.13
2018-06-05T08:29:00.086Z,61.20
2018-06-05T08:34:03.106Z,61.09
2018-06-05T08:39:07.763Z,59.93
2018-06-05T08:44:10.754Z,61.09
2018-06-05T08:49:13.725Z,60.91
2018-06-05T08:54:16.776Z,60.35
2018-06-05T08:59:19.726Z,58.50
2018-06-05T09:04:22.718Z,58.71
2018-06-05T09:09:25.698Z,58.21
2018-06-05T09:14:28.669Z,58.29
2018-06-05T09:19:31.653Z,58.09
2018-06-05T09:24:34.658Z,56.42
2018-06-05T09:29:37.641Z,55.80
2018-06-05T09:34:40.609Z,56.87
2018-06-05T09:39:43.649Z,56.31
2018-06-05T09:44:46.616Z,55.79
2018-06-05T09:49:49.609Z,55.33
2018-06-05T09:54:52.590Z,54.80
2018-06-05T09:59:55.588Z,54.74
2018-06-05T10:04:58.605Z,54.50
2018-06-05T10:10:01.587Z,53.25
2018-06-05T10:15:04.629Z,52.92
2018-06-05T10:20:07.601Z,53.52
2018-06-05T10:25:10.581Z,52.12
2018-06-05T10:30:13.553Z,51.80
2018-06-05T10:35:16.529Z,51.49
2018-06-05T10:40:19.510Z,52.89
2018-06-05T10:45:22.497Z,51.70
2018-06-05T10:50:25.510Z,50.83
2018-06-05T10:55:28.497Z,50.50
2018-06-05T11:00:31.638Z,49.10
2018-06-05T11:05:34.510Z,47.77
2018-06-05T11:10:37.513Z,48.38
2018-06-05T11:15:40.499Z,47.26
2018-06-05T11:20:43.507Z,46.37
2018-06-05T11:25:46.514Z,47.22
2018-06-05T11:30:49.514Z,46.83
2018-06-05T11:35:52.493Z,44.05
2018-06-05T11:40:55.501Z,42.34
2018-06-05T11:45:58.513Z,42.47
2018-06-05T11:51:01.517Z,42.91
2018-06-05T11:56:04.739Z,44.19
2018-06-05T12:01:07.854Z,43.38
2018-06-05T12:06:10.870Z,42.77
2018-06-05T12:11:13.925Z,42.34
2018-06-05T12:16:16.934Z,42.68
2018-06-05T12:21:19.925Z,42.51
2018-06-05T12:26:22.951Z,43.29
2018-06-05T12:31:25.970Z,47.14
2018-06-05T12:36:28.946Z,47.43
2018-06-05T12:41:31.950Z,46.69
2018-06-05T12:46:34.933Z,47.33
2018-06-05T12:51:37.980Z,46.72
2018-06-05T12:56:40.990Z,45.72
2018-06-05T13:01:44.051Z,44.02
2018-06-05T13:06:47.053Z,46.39
2018-06-05T13:11:50.064Z,45.05
2018-06-05T13:16:53.050Z,44.68
2018-06-05T13:21:56.013Z,45.21
2018-06-05T13:27:04.685Z,46.21
2018-06-05T13:32:07.686Z,45.29
2018-06-05T13:37:10.669Z,44.00
2018-06-05T13:42:13.637Z,44.00
2018-06-05T13:47:16.634Z,44.39
2018-06-05T13:52:19.640Z,44.49
2018-06-05T13:57:22.645Z,44.11
2018-06-05T14:02:25.621Z,42.64
2018-06-05T14:07:28.617Z,41.08
2018-06-05T14:12:31.635Z,42.06
2018-06-05T14:17:34.653Z,42.08
2018-06-05T14:22:37.701Z,41.04
2018-06-05T14:27:40.715Z,41.58
2018-06-05T14:32:43.874Z,41.13
2018-06-05T14:37:46.862Z,40.35
2018-06-05T14:42:49.858Z,38.07
2018-06-05T14:47:53.689Z,39.40
2018-06-05T14:52:56.705Z,38.43
2018-06-05T14:57:59.762Z,37.53
2018-06-05T15:03:02.808Z,37.58
2018-06-05T15:08:06.323Z,36.88
2018-06-05T15:13:09.503Z,37.14
2018-06-05T15:18:13.165Z,36.01
2018-06-05T15:23:16.282Z,34.98
2018-06-05T15:28:19.447Z,36.96
2018-06-05T15:33:22.473Z,36.22
2018-06-05T15:38:25.546Z,35.43
2018-06-05T15:43:28.576Z,35.34
2018-06-05T15:48:31.638Z,35.40
2018-06-05T15:53:34.791Z,35.02
2018-06-05T15:58:37.858Z,34.52
2018-06-05T16:03:40.971Z,35.17
2018-06-05T16:08:44.086Z,35.23
2018-06-05T16:13:47.179Z,35.21
2018-06-05T16:18:50.230Z,34.31
2018-06-05T16:23:53.315Z,35.31
2018-06-05T16:28:58.389Z,34.57
2018-06-05T16:34:01.527Z,34.42
2018-06-05T16:39:07.756Z,34.92
2018-06-05T16:44:10.809Z,34.73
2018-06-05T16:49:13.844Z,34.72
2018-06-05T16:54:16.950Z,33.43
2018-06-05T16:59:20.042Z,34.39
2018-06-05T17:04:23.170Z,34.68
2018-06-05T17:09:26.180Z,35.68
2018-06-05T17:14:29.257Z,35.83
2018-06-05T17:19:32.407Z,36.68
2018-06-05T17:24:35.554Z,37.97
2018-06-05T17:29:38.567Z,38.25
2018-06-05T17:34:41.591Z,38.93
2018-06-05T17:39:44.647Z,39.60
2018-06-05T17:44:47.666Z,40.00
2018-06-05T17:49:50.682Z,40.05
2018-06-05T17:54:53.677Z,41.01
2018-06-05T17:59:56.685Z,42.28
2018-06-05T18:04:59.702Z,42.77
2018-06-05T18:10:02.783Z,43.30
2018-06-05T18:15:05.994Z,43.39
2018-06-05T18:20:09.020Z,44.05
2018-06-05T18:25:12.018Z,44.86
2018-06-05T18:30:15.104Z,45.68
2018-06-05T18:35:18.173Z,46.43
2018-06-05T18:40:21.517Z,46.69
2018-06-05T18:45:24.560Z,47.69
2018-06-05T18:50:27.597Z,48.86
2018-06-05T18:55:30.646Z,48.86
2018-06-05T19:00:33.787Z,50.26
2018-06-05T19:05:36.862Z,50.30
2018-06-05T19:10:39.883Z,50.78
2018-06-05T19:15:42.963Z,50.68
2018-06-05T19:20:46.012Z,51.57
2018-06-05T19:25:49.065Z,52.06
2018-06-05T19:30:52.081Z,53.38
2018-06-05T19:35:55.253Z,53.29
2018-06-05T19:40:58.289Z,54.34
2018-06-05T19:46:01.342Z,54.56
2018-06-05T19:51:04.471Z,55.26
2018-06-05T19:56:07.945Z,55.62
2018-06-05T20:01:10.990Z,55.74
2018-06-05T20:06:14.106Z,56.21
2018-06-05T20:11:17.613Z,57.08
2018-06-05T20:16:21.365Z,57.12
2018-06-05T20:21:24.393Z,57.53
2018-06-05T20:26:27.423Z,58.36
2018-06-05T20:31:30.442Z,58.48
2018-06-05T20:36:33.467Z,58.40
2018-06-05T20:41:36.477Z,58.96
2018-06-05T20:46:39.480Z,57.86
2018-06-05T20:51:42.511Z,58.29
2018-06-05T20:56:45.564Z,58.56
2018-06-05T21:01:48.561Z,59.13
2018-06-05T21:06:51.588Z,58.57
2018-06-05T21:11:54.609Z,58.54
2018-06-05T21:16:57.606Z,57.38
2018-06-05T21:22:00.637Z,57.40
2018-06-05T21:27:03.674Z,57.10
2018-06-05T21:32:06.677Z,57.58
2018-06-05T21:37:09.706Z,57.63
2018-06-05T21:42:12.706Z,58.63
2018-06-05T21:47:15.721Z,57.94
2018-06-05T21:52:18.750Z,58.18
2018-06-05T21:57:21.756Z,58.08
2018-06-05T22:02:24.782Z,58.50
2018-06-05T22:07:27.837Z,59.33
2018-06-05T22:12:30.865Z,58.93
2018-06-05T22:17:33.892Z,59.90
2018-06-05T22:22:36.902Z,60.67
2018-06-05T22:27:39.903Z,60.77
2018-06-05T22:32:42.918Z,61.41
2018-06-05T22:37:45.981Z,61.67
2018-06-05T22:42:48.978Z,61.70
2018-06-05T22:47:52.022Z,60.86
2018-06-05T22:52:55.030Z,61.62
2018-06-05T22:57:58.043Z,62.40
2018-06-05T23:03:01.122Z,62.66
2018-06-05T23:08:04.358Z,62.66
2018-06-05T23:13:07.398Z,62.57
2018-06-05T23:18:11.438Z,62.79
2018-06-05T23:23:14.468Z,63.53
2018-06-05T23:28:17.509Z,64.21
2018-06-05T23:33:20.521Z,63.80
2018-06-05T23:38:23.542Z,63.74
2018-06-05T23:43:26.590Z,64.48
2018-06-05T23:48:29.606Z,64.77
2018-06-05T23:53:32.614Z,63.78
2018-06-05T23:58:35.669Z,64.34
